createdAt,value
2022-08-17T00:00:42.878Z,56.27
2022-08-17T00:03:10.915Z,56.36
2022-08-17T00:05:45.036Z,56.49
2022-08-17T00:08:14.841Z,56.24
2022-08-17T00:10:44.041Z,55.51
2022-08-17T00:13:16.053Z,55.29
2022-08-17T00:15:44.935Z,55.03
2022-08-17T00:19:01.244Z,54.90
2022-08-17T00:21:10.558Z,55.74
2022-08-17T00:23:46.231Z,55.15
2022-08-17T00:26:43.503Z,55.92
2022-08-17T00:29:08.404Z,56.15
2022-08-17T00:31:38.163Z,55.98
2022-08-17T00:34:10.142Z,57.01
2022-08-17T00:36:38.691Z,57.05
2022-08-17T00:39:06.818Z,58.48
2022-08-17T00:41:35.958Z,57.91
2022-08-17T00:44:09.804Z,58.52
2022-08-17T00:46:41.092Z,58.63
2022-08-17T00:49:12.496Z,58.67
2022-08-17T00:51:44.220Z,59.09
2022-08-17T00:54:16.175Z,58.41
2022-08-17T00:56:47.732Z,58.75
2022-08-17T00:59:21.126Z,59.13
2022-08-17T01:01:51.391Z,58.79
2022-08-17T01:04:22.755Z,58.89
2022-08-17T01:06:52.308Z,59.40
2022-08-17T01:09:21.501Z,59.62
2022-08-17T01:11:52.857Z,59.37
2022-08-17T01:14:21.703Z,59.94
2022-08-17T01:16:51.717Z,60.18
2022-08-17T01:19:24.634Z,60.07
2022-08-17T01:22:00.490Z,59.38
2022-08-17T01:24:31.233Z,59.41
2022-08-17T01:27:01.978Z,59.44
2022-08-17T01:29:32.782Z,59.45
2022-08-17T01:32:04.857Z,59.15
2022-08-17T01:34:42.352Z,59.60
2022-08-17T01:37:11.644Z,59.35
2022-08-17T01:39:45.061Z,59.29
2022-08-17T01:42:30.654Z,59.48
2022-08-17T01:45:03.243Z,59.79
2022-08-17T01:47:31.879Z,59.89
2022-08-17T01:50:10.757Z,59.64
2022-08-17T01:52:39.494Z,59.57
2022-08-17T01:55:10.214Z,59.23
2022-08-17T01:57:38.549Z,59.02
2022-08-17T02:00:10.233Z,58.37
2022-08-17T02:02:39.190Z,57.92
2022-08-17T02:05:08.720Z,58.02
2022-08-17T02:07:59.393Z,57.70
2022-08-17T02:10:34.109Z,57.66
2022-08-17T02:13:03.111Z,57.23
2022-08-17T02:15:32.167Z,57.22
2022-08-17T02:18:00.713Z,57.18
2022-08-17T02:20:41.501Z,57.15
2022-08-17T02:23:13.000Z,56.97
2022-08-17T02:25:45.280Z,57.63
2022-08-17T02:28:13.696Z,57.91
2022-08-17T02:30:59.851Z,57.85
2022-08-17T02:33:43.238Z,58.20
2022-08-17T02:36:13.957Z,58.02
2022-08-17T02:38:42.806Z,57.39
2022-08-17T02:41:12.724Z,56.94
2022-08-17T02:43:40.908Z,57.41
2022-08-17T02:46:09.548Z,57.59
2022-08-17T02:48:37.713Z,57.89
2022-08-17T02:51:05.879Z,56.84
2022-08-17T02:53:35.873Z,57.31
2022-08-17T02:56:04.990Z,57.74
2022-08-17T02:58:36.064Z,57.93
2022-08-17T03:01:05.258Z,57.81
2022-08-17T03:03:33.495Z,58.86
2022-08-17T03:06:02.474Z,58.51
2022-08-17T03:08:31.643Z,58.34
2022-08-17T03:10:59.764Z,58.97
2022-08-17T03:13:28.390Z,59.05
2022-08-17T03:15:57.974Z,59.06
2022-08-17T03:18:27.975Z,59.96
2022-08-17T03:20:59.141Z,59.80
2022-08-17T03:23:29.587Z,59.44
2022-08-17T03:25:59.403Z,59.76
2022-08-17T03:28:28.307Z,60.15
2022-08-17T03:30:58.130Z,61.33
2022-08-17T03:33:26.912Z,60.60
2022-08-17T03:35:56.159Z,60.00
2022-08-17T03:38:24.835Z,60.30
2022-08-17T03:40:59.409Z,60.50
2022-08-17T03:43:30.037Z,60.65
2022-08-17T03:46:27.724Z,60.61
2022-08-17T03:49:15.677Z,60.76
2022-08-17T03:52:01.586Z,61.37
2022-08-17T03:54:47.088Z,61.27
2022-08-17T03:57:15.221Z,60.94
2022-08-17T03:59:45.008Z,61.13
2022-08-17T04:02:20.847Z,60.78
2022-08-17T04:04:51.339Z,60.46
2022-08-17T04:07:20.557Z,59.87
2022-08-17T04:09:49.166Z,59.65
2022-08-17T04:12:18.767Z,59.42
2022-08-17T04:14:51.646Z,59.76
2022-08-17T04:17:25.262Z,60.21
2022-08-17T04:19:54.235Z,59.92
2022-08-17T04:22:30.753Z,59.82
2022-08-17T04:25:05.572Z,59.97
2022-08-17T04:27:33.797Z,60.10
2022-08-17T04:30:02.070Z,59.69
2022-08-17T04:33:00.802Z,59.22
2022-08-17T04:35:23.895Z,59.76
2022-08-17T04:37:52.379Z,59.31
2022-08-17T04:40:40.677Z,59.54
2022-08-17T04:43:11.094Z,58.90
2022-08-17T04:45:55.251Z,58.68
2022-08-17T04:48:35.517Z,58.28
2022-08-17T04:51:10.080Z,57.51
2022-08-17T04:53:39.603Z,57.72
2022-08-17T04:56:16.104Z,57.54
2022-08-17T04:58:46.282Z,57.00
2022-08-17T05:01:14.708Z,55.65
2022-08-17T05:03:45.114Z,57.50
2022-08-17T05:06:13.421Z,57.66
2022-08-17T05:08:41.846Z,56.25
2022-08-17T05:11:10.301Z,55.51
2022-08-17T05:13:38.447Z,55.35
2022-08-17T05:16:07.086Z,56.17
2022-08-17T05:18:35.168Z,55.02
2022-08-17T05:21:04.806Z,54.81
2022-08-17T05:23:41.728Z,54.50
2022-08-17T05:26:25.937Z,54.74
2022-08-17T05:28:57.274Z,54.83
2022-08-17T05:31:54.639Z,55.09
2022-08-17T05:34:23.505Z,54.65
2022-08-17T05:36:52.932Z,54.28
2022-08-17T05:39:21.263Z,53.24
2022-08-17T05:41:49.416Z,54.09
2022-08-17T05:44:18.190Z,53.48
2022-08-17T05:46:50.115Z,52.38
2022-08-17T05:49:27.180Z,52.00
2022-08-17T05:52:24.027Z,52.11
2022-08-17T05:55:04.145Z,52.42
2022-08-17T05:57:47.447Z,52.50
2022-08-17T06:00:26.472Z,52.62
2022-08-17T06:03:18.513Z,51.79
2022-08-17T06:05:59.514Z,51.25
2022-08-17T06:08:39.684Z,50.84
2022-08-17T06:11:19.861Z,50.94
2022-08-17T06:14:05.215Z,50.50
2022-08-17T06:16:39.147Z,48.80
2022-08-17T06:19:14.288Z,48.49
2022-08-17T06:21:45.416Z,48.06
2022-08-17T06:24:25.753Z,46.96
2022-08-17T06:26:56.218Z,45.53
2022-08-17T06:29:37.191Z,44.54
2022-08-17T06:32:08.959Z,44.58
2022-08-17T06:34:38.845Z,43.28
2022-08-17T06:37:18.809Z,42.56
2022-08-17T06:39:56.670Z,41.97
2022-08-17T06:43:05.515Z,38.50
2022-08-17T06:45:32.419Z,38.05
2022-08-17T06:48:06.877Z,37.27
2022-08-17T06:50:36.949Z,36.73
2022-08-17T06:53:08.745Z,36.58
2022-08-17T06:55:46.592Z,35.12
2022-08-17T06:58:16.905Z,35.64
2022-08-17T07:00:47.570Z,34.70
2022-08-17T07:03:24.104Z,29.11
2022-08-17T07:05:55.477Z,21.17
2022-08-17T07:08:35.035Z,16.28
2022-08-17T07:11:09.736Z,15.31
2022-08-17T07:13:51.057Z,12.94
2022-08-17T07:16:25.873Z,13.56
2022-08-17T07:18:55.513Z,12.35
2022-08-17T07:21:40.830Z,12.75
2022-08-17T07:24:26.296Z,15.04
2022-08-17T07:27:09.390Z,17.38
2022-08-17T07:29:44.190Z,15.81
2022-08-17T07:32:18.634Z,15.98
2022-08-17T07:35:11.364Z,16.54
2022-08-17T07:37:40.971Z,16.58
2022-08-17T07:40:22.025Z,17.69
2022-08-17T07:43:26.291Z,19.07
2022-08-17T07:46:30.061Z,17.76
2022-08-17T07:49:16.879Z,15.91
2022-08-17T07:52:00.003Z,17.93
2022-08-17T07:54:48.332Z,16.11
2022-08-17T07:57:40.613Z,15.24
2022-08-17T08:00:19.719Z,21.43
2022-08-17T08:03:04.353Z,21.09
2022-08-17T08:05:49.861Z,17.29
2022-08-17T08:08:27.506Z,16.78
2022-08-17T08:11:02.155Z,15.53
2022-08-17T08:13:32.184Z,14.53
2022-08-17T08:16:24.503Z,13.02
2022-08-17T08:18:57.622Z,14.19
2022-08-17T08:21:36.362Z,16.40
2022-08-17T08:24:31.329Z,14.67
2022-08-17T08:27:09.164Z,12.10
2022-08-17T08:29:48.716Z,11.11
2022-08-17T08:32:22.005Z,12.16
2022-08-17T08:35:06.500Z,12.36
2022-08-17T08:37:44.486Z,10.50
2022-08-17T08:40:29.865Z,10.80
2022-08-17T08:43:08.348Z,11.15
2022-08-17T08:45:45.563Z,11.54
2022-08-17T08:48:53.271Z,11.56
2022-08-17T08:51:21.144Z,10.50
2022-08-17T08:54:02.353Z,11.42
2022-08-17T08:56:37.735Z,13.47
2022-08-17T08:59:14.921Z,14.97
2022-08-17T09:01:52.864Z,14.18
2022-08-17T09:05:10.266Z,13.96
2022-08-17T09:07:44.760Z,17.32
2022-08-17T09:10:22.699Z,15.21
2022-08-17T09:13:09.317Z,14.00
2022-08-17T09:15:43.486Z,14.82
2022-08-17T09:19:01.132Z,14.16
2022-08-17T09:21:11.192Z,12.55
2022-08-17T09:23:49.421Z,13.82
2022-08-17T09:26:22.973Z,12.92
2022-08-17T09:28:54.933Z,11.09
2022-08-17T09:31:33.118Z,12.54
2022-08-17T09:34:34.459Z,13.31
2022-08-17T09:37:12.522Z,11.96
2022-08-17T09:39:47.345Z,12.44
2022-08-17T09:42:22.762Z,11.65
2022-08-17T09:45:10.675Z,11.97
2022-08-17T09:47:45.760Z,13.21
2022-08-17T09:51:04.456Z,17.23
2022-08-17T09:53:10.419Z,19.62
2022-08-17T09:56:02.785Z,21.91
2022-08-17T09:58:41.721Z,22.32
2022-08-17T10:01:23.649Z,22.55
2022-08-17T10:04:20.388Z,22.65
2022-08-17T10:06:54.230Z,22.72
2022-08-17T10:09:34.100Z,24.32
2022-08-17T10:12:21.466Z,25.79
2022-08-17T10:15:07.898Z,25.68
2022-08-17T10:17:43.980Z,24.95
2022-08-17T10:20:18.168Z,26.24
2022-08-17T10:23:08.748Z,24.53
2022-08-17T10:26:12.336Z,25.46
2022-08-17T10:28:48.902Z,25.85
2022-08-17T10:31:48.418Z,24.41
2022-08-17T10:34:40.423Z,23.70
2022-08-17T10:37:28.348Z,25.42
2022-08-17T10:40:07.378Z,25.17
2022-08-17T10:42:45.749Z,24.04
2022-08-17T10:45:20.824Z,21.66
2022-08-17T10:48:05.354Z,20.28
2022-08-17T10:51:00.106Z,18.30
2022-08-17T10:53:58.206Z,18.45
2022-08-17T10:56:42.197Z,18.92
2022-08-17T10:59:10.253Z,17.67
2022-08-17T11:02:05.239Z,17.89
2022-08-17T11:04:53.790Z,17.19
2022-08-17T11:07:38.507Z,16.47
2022-08-17T11:10:21.644Z,17.68
2022-08-17T11:13:01.105Z,17.43
2022-08-17T11:15:51.633Z,16.70
2022-08-17T11:18:38.496Z,17.86
2022-08-17T11:21:20.405Z,17.92
2022-08-17T11:24:11.381Z,17.54
2022-08-17T11:26:46.501Z,18.77
2022-08-17T11:29:21.805Z,20.85
2022-08-17T11:32:05.958Z,19.88
2022-08-17T11:34:36.523Z,21.09
2022-08-17T11:37:31.803Z,21.12
2022-08-17T11:40:16.019Z,19.93
2022-08-17T11:42:59.985Z,18.49
2022-08-17T11:45:47.869Z,17.96
2022-08-17T11:48:40.773Z,17.10
2022-08-17T11:51:32.399Z,17.93
2022-08-17T11:54:34.908Z,19.63
2022-08-17T11:56:53.783Z,19.01
2022-08-17T11:59:58.582Z,20.14
2022-08-17T12:02:35.110Z,19.53
2022-08-17T12:05:27.370Z,17.87
2022-08-17T12:08:07.943Z,19.39
2022-08-17T12:10:40.876Z,18.36
2022-08-17T12:13:17.421Z,19.59
2022-08-17T12:15:49.730Z,18.64
2022-08-17T12:18:23.121Z,19.28
2022-08-17T12:21:08.224Z,20.29
2022-08-17T12:23:44.276Z,20.81
2022-08-17T12:26:19.477Z,20.61
2022-08-17T12:28:49.755Z,22.94
2022-08-17T12:31:47.457Z,23.30
2022-08-17T12:34:19.993Z,24.74
2022-08-17T12:36:51.006Z,24.32
2022-08-17T12:39:22.841Z,24.28
2022-08-17T12:42:01.955Z,24.15
2022-08-17T12:44:32.594Z,23.67
2022-08-17T12:47:04.834Z,24.26
2022-08-17T12:49:35.249Z,24.82
2022-08-17T12:52:08.611Z,24.65
2022-08-17T12:54:48.048Z,24.67
2022-08-17T12:57:18.903Z,25.58
2022-08-17T12:59:50.961Z,26.21
2022-08-17T13:02:44.141Z,25.66
2022-08-17T13:05:24.076Z,24.59
2022-08-17T13:07:53.184Z,23.15
2022-08-17T13:10:31.586Z,23.41
2022-08-17T13:13:05.099Z,23.13
2022-08-17T13:15:44.805Z,22.68
2022-08-17T13:18:39.444Z,22.50
2022-08-17T13:21:13.813Z,24.25
2022-08-17T13:23:44.792Z,22.50
2022-08-17T13:26:29.510Z,22.48
2022-08-17T13:28:58.140Z,22.38
2022-08-17T13:31:56.653Z,26.30
2022-08-17T13:35:02.146Z,25.82
2022-08-17T13:37:30.135Z,21.99
2022-08-17T13:40:19.209Z,20.07
2022-08-17T13:42:52.545Z,21.37
2022-08-17T13:45:50.502Z,19.29
2022-08-17T13:48:28.227Z,20.11
2022-08-17T13:51:16.292Z,22.66
2022-08-17T13:53:57.757Z,23.16
2022-08-17T13:56:39.175Z,23.81
2022-08-17T13:59:12.309Z,23.97
2022-08-17T14:01:42.378Z,24.72
2022-08-17T14:04:13.300Z,24.33
2022-08-17T14:06:54.055Z,23.85
2022-08-17T14:09:25.106Z,25.13
2022-08-17T14:11:55.437Z,24.21
2022-08-17T14:14:25.165Z,24.91
2022-08-17T14:16:53.767Z,28.12
2022-08-17T14:19:22.812Z,28.93
2022-08-17T14:21:51.016Z,28.93
2022-08-17T14:24:23.317Z,29.54
2022-08-17T14:26:52.933Z,26.47
2022-08-17T14:29:21.217Z,25.62
2022-08-17T14:31:54.435Z,27.63
2022-08-17T14:34:23.909Z,26.15
2022-08-17T14:36:52.405Z,22.48
2022-08-17T14:39:20.994Z,22.65
2022-08-17T14:41:49.089Z,20.98
2022-08-17T14:44:17.534Z,22.23
2022-08-17T14:46:46.130Z,20.53
2022-08-17T14:49:16.104Z,22.29
2022-08-17T14:51:44.639Z,22.63
2022-08-17T14:54:32.714Z,24.18
2022-08-17T14:57:04.718Z,23.53
2022-08-17T14:59:53.225Z,23.26
2022-08-17T15:02:29.314Z,22.20
2022-08-17T15:05:05.079Z,22.74
2022-08-17T15:07:33.247Z,23.39
2022-08-17T15:10:02.098Z,22.85
2022-08-17T15:12:34.338Z,23.67
2022-08-17T15:15:04.755Z,24.63
2022-08-17T15:17:44.781Z,23.30
2022-08-17T15:20:27.672Z,21.89
2022-08-17T15:22:57.373Z,23.17
2022-08-17T15:25:26.575Z,23.69
2022-08-17T15:27:55.706Z,23.97
2022-08-17T15:30:24.399Z,24.44
2022-08-17T15:32:55.340Z,23.88
2022-08-17T15:35:28.948Z,24.07
2022-08-17T15:38:06.494Z,23.60
2022-08-17T15:40:36.875Z,23.83
2022-08-17T15:43:07.964Z,24.23
2022-08-17T15:45:35.961Z,25.16
2022-08-17T15:48:04.486Z,24.79
2022-08-17T15:50:33.870Z,24.88
2022-08-17T15:53:03.551Z,25.54
2022-08-17T15:55:34.258Z,25.57
2022-08-17T15:58:02.223Z,24.02
2022-08-17T16:00:30.476Z,23.29
2022-08-17T16:03:45.180Z,23.82
2022-08-17T16:05:52.888Z,23.66
2022-08-17T16:08:21.496Z,23.57
2022-08-17T16:10:50.223Z,22.96
2022-08-17T16:13:19.290Z,23.81
2022-08-17T16:15:56.226Z,23.93
2022-08-17T16:18:30.738Z,24.09
2022-08-17T16:21:21.428Z,23.32
2022-08-17T16:23:51.344Z,23.80
2022-08-17T16:26:19.816Z,23.50
2022-08-17T16:28:48.317Z,22.90
2022-08-17T16:31:17.151Z,24.13
2022-08-17T16:34:16.110Z,23.55
2022-08-17T16:36:35.351Z,24.57
2022-08-17T16:39:03.218Z,23.50
2022-08-17T16:41:46.421Z,23.97
2022-08-17T16:44:15.860Z,24.44
2022-08-17T16:46:45.994Z,23.67
2022-08-17T16:49:31.952Z,23.93
2022-08-17T16:52:05.205Z,24.84
2022-08-17T16:54:35.505Z,24.11
2022-08-17T16:57:05.056Z,24.45
2022-08-17T16:59:40.280Z,23.47
2022-08-17T17:02:11.447Z,26.76
2022-08-17T17:04:45.145Z,24.99
2022-08-17T17:07:41.027Z,25.21
2022-08-17T17:10:13.645Z,25.60
2022-08-17T17:13:02.330Z,26.67
2022-08-17T17:15:41.429Z,25.72
2022-08-17T17:18:14.743Z,25.77
2022-08-17T17:20:48.569Z,26.73
2022-08-17T17:23:31.174Z,27.84
2022-08-17T17:26:08.615Z,29.34
2022-08-17T17:28:43.470Z,29.87
2022-08-17T17:31:41.212Z,29.43
2022-08-17T17:34:13.722Z,30.25
2022-08-17T17:36:47.059Z,32.10
2022-08-17T17:39:20.060Z,33.29
2022-08-17T17:41:52.256Z,33.92
2022-08-17T17:44:25.732Z,33.54
2022-08-17T17:46:57.087Z,33.05
2022-08-17T17:49:27.049Z,35.87
2022-08-17T17:52:11.118Z,37.15
2022-08-17T17:54:54.008Z,35.70
2022-08-17T17:57:33.828Z,38.19
2022-08-17T18:00:09.190Z,36.49
2022-08-17T18:02:52.589Z,37.50
2022-08-17T18:05:35.877Z,38.77
2022-08-17T18:08:33.793Z,38.83
2022-08-17T18:11:24.023Z,41.15
2022-08-17T18:14:10.699Z,40.40
2022-08-17T18:16:42.725Z,40.73
2022-08-17T18:19:14.091Z,40.54
2022-08-17T18:21:44.717Z,41.14
2022-08-17T18:24:13.833Z,42.27
2022-08-17T18:26:47.905Z,41.83
2022-08-17T18:29:32.150Z,41.76
2022-08-17T18:32:26.091Z,43.29
2022-08-17T18:34:58.084Z,42.50
2022-08-17T18:37:35.767Z,42.59
2022-08-17T18:40:26.937Z,43.74
2022-08-17T18:43:07.719Z,43.12
2022-08-17T18:45:40.887Z,44.12
2022-08-17T18:48:20.780Z,43.25
2022-08-17T18:50:48.728Z,44.69
2022-08-17T18:53:33.537Z,44.78
2022-08-17T18:56:30.859Z,44.69
2022-08-17T18:59:10.865Z,45.75
2022-08-17T19:01:53.466Z,45.44
2022-08-17T19:04:36.124Z,45.08
2022-08-17T19:07:08.212Z,45.40
2022-08-17T19:09:41.328Z,45.72
2022-08-17T19:12:27.214Z,45.60
2022-08-17T19:14:58.405Z,47.07
2022-08-17T19:17:35.348Z,47.27
2022-08-17T19:20:11.521Z,46.60
2022-08-17T19:22:55.029Z,46.29
2022-08-17T19:25:27.240Z,46.12
2022-08-17T19:28:00.646Z,46.57
2022-08-17T19:30:32.776Z,47.55
2022-08-17T19:33:03.643Z,47.01
2022-08-17T19:35:42.059Z,47.64
2022-08-17T19:38:18.396Z,47.49
2022-08-17T19:41:00.193Z,46.61
2022-08-17T19:43:40.256Z,47.26
2022-08-17T19:46:19.837Z,46.77
2022-08-17T19:48:53.520Z,46.85
2022-08-17T19:51:31.333Z,47.08
2022-08-17T19:54:06.932Z,47.10
2022-08-17T19:56:42.419Z,48.48
2022-08-17T19:59:16.677Z,48.81
2022-08-17T20:01:51.040Z,48.33
2022-08-17T20:04:32.488Z,49.03
2022-08-17T20:07:04.318Z,48.49
2022-08-17T20:09:37.877Z,48.68
2022-08-17T20:12:10.196Z,49.25
2022-08-17T20:14:53.593Z,49.94
2022-08-17T20:17:28.387Z,50.48
2022-08-17T20:20:02.574Z,49.30
2022-08-17T20:22:36.797Z,50.15
2022-08-17T20:25:30.533Z,50.64
2022-08-17T20:28:05.734Z,50.20
2022-08-17T20:30:38.370Z,50.18
2022-08-17T20:33:23.223Z,49.56
2022-08-17T20:36:03.561Z,50.42
2022-08-17T20:38:42.266Z,51.05
2022-08-17T20:41:14.427Z,51.10
2022-08-17T20:43:48.956Z,49.90
2022-08-17T20:46:31.613Z,50.39
2022-08-17T20:49:16.961Z,50.64
2022-08-17T20:52:01.726Z,51.44
2022-08-17T20:54:44.511Z,51.00
2022-08-17T20:57:51.354Z,51.72
2022-08-17T21:00:45.821Z,51.12
2022-08-17T21:03:51.139Z,51.58
2022-08-17T21:06:26.299Z,51.41
2022-08-17T21:08:58.644Z,52.27
2022-08-17T21:12:03.503Z,52.38
2022-08-17T21:14:59.850Z,52.53
2022-08-17T21:17:41.840Z,52.31
2022-08-17T21:20:25.313Z,52.98
2022-08-17T21:23:08.824Z,52.60
2022-08-17T21:25:58.394Z,52.57
2022-08-17T21:29:00.396Z,53.56
2022-08-17T21:31:37.511Z,53.96
2022-08-17T21:34:31.339Z,54.36
2022-08-17T21:37:29.750Z,53.81
2022-08-17T21:40:02.907Z,53.69
2022-08-17T21:42:34.642Z,53.90
2022-08-17T21:45:10.851Z,54.29
2022-08-17T21:47:47.729Z,54.50
2022-08-17T21:50:21.651Z,54.67
2022-08-17T21:52:54.580Z,54.55
2022-08-17T21:55:28.907Z,55.10
2022-08-17T21:58:11.381Z,55.48
2022-08-17T22:00:45.016Z,55.97
2022-08-17T22:03:24.623Z,55.61
2022-08-17T22:05:52.463Z,55.69
2022-08-17T22:08:23.602Z,55.95
2022-08-17T22:11:01.700Z,55.95
2022-08-17T22:13:30.145Z,56.12
2022-08-17T22:16:27.840Z,56.59
2022-08-17T22:18:58.714Z,57.15
2022-08-17T22:21:27.167Z,57.59
2022-08-17T22:24:03.985Z,58.27
2022-08-17T22:27:08.523Z,58.12
2022-08-17T22:29:54.292Z,57.21
2022-08-17T22:32:39.546Z,57.42
2022-08-17T22:35:32.618Z,57.75
2022-08-17T22:38:32.046Z,58.05
2022-08-17T22:41:27.204Z,57.42
2022-08-17T22:43:57.712Z,57.14
2022-08-17T22:46:26.659Z,57.37
2022-08-17T22:48:57.870Z,57.54
2022-08-17T22:51:29.634Z,58.34
2022-08-17T22:54:18.573Z,58.60
2022-08-17T22:57:14.288Z,58.73
2022-08-17T22:59:50.900Z,58.98
2022-08-17T23:02:25.561Z,58.75
2022-08-17T23:04:57.346Z,59.49
2022-08-17T23:07:25.162Z,59.67
2022-08-17T23:09:55.051Z,59.89
2022-08-17T23:12:27.497Z,59.77
2022-08-17T23:15:01.653Z,59.95
2022-08-17T23:17:37.131Z,59.37
2022-08-17T23:20:08.251Z,59.22
2022-08-17T23:22:38.243Z,59.21
2022-08-17T23:25:28.250Z,60.07
2022-08-17T23:27:57.423Z,60.53
2022-08-17T23:30:28.495Z,60.22
2022-08-17T23:33:02.263Z,60.39
2022-08-17T23:35:40.578Z,59.48
2022-08-17T23:38:10.040Z,59.76
2022-08-17T23:40:39.422Z,59.40
2022-08-17T23:43:23.536Z,59.38
2022-08-17T23:45:55.009Z,59.71
2022-08-17T23:48:36.290Z,59.27
2022-08-17T23:51:09.407Z,59.08
2022-08-17T23:53:40.402Z,58.93
2022-08-17T23:56:11.257Z,59.01
2022-08-17T23:58:42.240Z,59.39
